Terminal Aerodrome Forecast
Issued by NWS Atlanta, GA

Home | Current Version | Previous Version | Text Only | Print | Product List | Glossary On
Versions: 1 2 3 4 5 6 7 8 9 10 11 12 13 14 15 16 17 18 19 20 21 22 23 24 25 26 27 28 29 30 31 32 33 34 35 36 37 38 39 40 41 42
630
FTAK31 PAJN 221854 CCC
TAFAHN
TAF COR
PAHN 221854Z 2218/2318 14008KT P6SM -RA BKN040 OVC050
      TEMPO 2219/2223 VRB06KT 4SM RA BR BKN005 BKN015
     FM230100 11008KT P6SM -RA BKN015 OVC025
     FM230500 09005KT P6SM OVC050
      AMD LTD TO CLD VIS AND WIND=

USA.gov is the U.S. government's official web portal to all federal, state and local government web resources and services.